Time;durP1;ratioP1;P1;durP2;ratioP2;P2;SDS_P1;SDS_P2;PMS_P1;PMS_P2;Temp;Humidity;BMP_temperature;BMP_pressure;BME280_temperature;BME280_humidity;BME280_pressure;Samples;Min_cycle;Max_cycle;Signal;HPM_P1;HPM_P2
2023/06/09 00:01:09;;;;;;;5.53;5.17;;;17.10;99.90;;;;;;5045737;28;20293;-53
2023/06/09 00:03:39;;;;;;;5.67;5.37;;;17.10;99.90;;;;;;5039587;28;20730;-53
2023/06/09 00:06:08;;;;;;;5.00;4.70;;;17.00;99.90;;;;;;5041054;28;20268;-53
2023/06/09 00:08:35;;;;;;;5.13;4.83;;;17.00;99.90;;;;;;5047183;28;20202;-53
2023/06/09 00:11:02;;;;;;;4.77;4.57;;;17.00;99.90;;;;;;5059298;28;20284;-54
2023/06/09 00:13:29;;;;;;;4.57;4.33;;;16.90;99.90;;;;;;5046550;28;20203;-53
2023/06/09 00:15:56;;;;;;;5.33;5.03;;;17.00;99.90;;;;;;5048089;28;20288;-53
2023/06/09 00:18:24;;;;;;;5.50;5.10;;;16.90;99.90;;;;;;5042718;28;20209;-54
2023/06/09 00:20:52;;;;;;;4.90;4.57;;;16.90;99.90;;;;;;5048198;28;20623;-53
2023/06/09 00:23:20;;;;;;;4.83;4.53;;;16.90;99.90;;;;;;5048621;28;20228;-53
2023/06/09 00:25:47;;;;;;;5.73;5.33;;;16.80;99.90;;;;;;5047238;28;20300;-53
2023/06/09 00:28:14;;;;;;;5.00;4.60;;;16.90;99.90;;;;;;5044803;28;20258;-53
2023/06/09 00:30:41;;;;;;;5.40;4.90;;;16.80;99.90;;;;;;5053399;28;20205;-53
2023/06/09 00:33:08;;;;;;;4.83;4.53;;;16.80;99.90;;;;;;5046728;28;20193;-53
2023/06/09 00:35:35;;;;;;;4.77;4.57;;;16.70;99.90;;;;;;5057609;28;20691;-54
2023/06/09 00:38:03;;;;;;;8.00;4.80;;;16.70;99.90;;;;;;5037417;28;20267;-53
2023/06/09 00:40:30;;;;;;;5.27;4.87;;;16.70;99.90;;;;;;5045691;28;20411;-53
2023/06/09 00:42:57;;;;;;;4.37;4.10;;;16.60;99.90;;;;;;5060790;28;20201;-53
2023/06/09 00:45:24;;;;;;;4.63;4.43;;;16.60;99.90;;;;;;5048925;28;20241;-53
2023/06/09 00:47:52;;;;;;;5.50;5.10;;;16.60;99.90;;;;;;5049081;28;20263;-54
2023/06/09 00:50:20;;;;;;;4.17;3.97;;;16.60;99.90;;;;;;5049306;28;20242;-53
2023/06/09 00:52:48;;;;;;;4.70;4.47;;;16.60;99.90;;;;;;5047283;28;20296;-53
2023/06/09 00:55:18;;;;;;;5.47;5.17;;;16.50;99.90;;;;;;5047300;28;20233;-53
2023/06/09 00:57:46;;;;;;;5.20;4.90;;;16.40;99.90;;;;;;5048897;28;20610;-53
2023/06/09 01:00:16;;;;;;;5.97;5.57;;;16.40;99.90;;;;;;5049711;28;20201;-53
2023/06/09 01:02:43;;;;;;;6.47;5.87;;;16.30;99.90;;;;;;5047854;28;20574;-54
2023/06/09 01:05:12;;;;;;;5.37;4.93;;;16.20;99.90;;;;;;5044836;28;20245;-54
2023/06/09 01:07:46;;;;;;;5.13;4.83;;;16.20;99.90;;;;;;5057315;28;20285;-53
2023/06/09 01:10:23;;;;;;;6.37;5.97;;;16.20;99.90;;;;;;5040403;28;20638;-54
2023/06/09 01:12:59;;;;;;;5.30;5.00;;;16.20;99.90;;;;;;5050545;28;20229;-53
2023/06/09 01:15:29;;;;;;;4.77;4.57;;;16.10;99.90;;;;;;5041949;28;20293;-53
2023/06/09 01:17:59;;;;;;;6.03;5.63;;;16.10;99.90;;;;;;5050837;28;20241;-53
2023/06/09 01:20:38;;;;;;;5.63;5.20;;;16.10;99.90;;;;;;5043824;28;20206;-53
2023/06/09 01:23:08;;;;;;;5.30;5.00;;;16.00;99.90;;;;;;5047368;28;20210;-53
2023/06/09 01:25:39;;;;;;;5.67;5.37;;;16.10;99.90;;;;;;5041226;28;20833;-53
2023/06/09 01:28:10;;;;;;;5.83;5.33;;;16.00;99.90;;;;;;5049768;28;20284;-53
2023/06/09 01:30:40;;;;;;;5.30;5.00;;;16.00;99.90;;;;;;5055396;28;20209;-54
2023/06/09 01:33:10;;;;;;;6.87;6.27;;;16.00;99.90;;;;;;5039740;28;20279;-53
2023/06/09 01:35:38;;;;;;;5.37;4.97;;;16.00;99.90;;;;;;5042382;28;20223;-54
2023/06/09 01:38:06;;;;;;;5.50;5.20;;;16.00;99.90;;;;;;5038185;28;20223;-53
2023/06/09 01:40:34;;;;;;;5.63;5.13;;;16.00;99.90;;;;;;5056340;28;20300;-53
2023/06/09 01:43:03;;;;;;;6.60;6.10;;;15.90;99.90;;;;;;5049910;28;20210;-54
2023/06/09 01:45:30;;;;;;;6.70;5.93;;;15.90;99.90;;;;;;5043616;28;20230;-53
2023/06/09 01:47:57;;;;;;;5.93;5.53;;;15.80;99.90;;;;;;5053211;28;20202;-53
2023/06/09 01:50:32;;;;;;;5.57;5.07;;;15.80;99.90;;;;;;5043665;28;20198;-54
2023/06/09 01:53:03;;;;;;;5.87;5.57;;;15.80;99.90;;;;;;5058098;28;20252;-53
2023/06/09 01:55:35;;;;;;;5.93;5.43;;;15.80;99.90;;;;;;5047997;28;20218;-54
2023/06/09 01:58:08;;;;;;;5.57;5.27;;;15.80;99.90;;;;;;5045325;28;20217;-53
2023/06/09 02:00:36;;;;;;;5.80;5.47;;;15.80;99.90;;;;;;5049109;28;20307;-53
2023/06/09 02:03:06;;;;;;;5.63;5.23;;;15.70;99.90;;;;;;5050194;28;20202;-53
2023/06/09 02:05:36;;;;;;;6.07;5.57;;;15.70;99.90;;;;;;5047277;28;20297;-53
2023/06/09 02:08:04;;;;;;;5.63;5.33;;;15.60;99.90;;;;;;5049895;28;20686;-53
2023/06/09 02:10:32;;;;;;;5.90;5.27;;;15.60;99.90;;;;;;5042202;28;20206;-53
2023/06/09 02:13:11;;;;;;;7.27;6.57;;;15.60;99.90;;;;;;5044232;28;20267;-53
2023/06/09 02:15:40;;;;;;;5.60;5.20;;;15.60;99.90;;;;;;5043246;28;20229;-53
2023/06/09 02:18:11;;;;;;;5.03;4.63;;;15.60;99.90;;;;;;5047830;28;20214;-53
2023/06/09 02:20:39;;;;;;;5.20;4.90;;;15.50;99.90;;;;;;5042947;28;20203;-53
2023/06/09 02:23:06;;;;;;;5.43;5.13;;;15.50;99.90;;;;;;5041747;28;20563;-53
2023/06/09 02:25:33;;;;;;;5.10;4.90;;;15.50;99.90;;;;;;5046795;28;20638;-54
2023/06/09 02:28:00;;;;;;;5.03;4.57;;;15.50;99.90;;;;;;5060150;28;20283;-53
2023/06/09 02:30:27;;;;;;;5.50;5.20;;;15.50;99.90;;;;;;5058484;28;20197;-53
2023/06/09 02:32:58;;;;;;;7.07;5.13;;;15.50;99.90;;;;;;5056690;28;20206;-53
2023/06/09 02:35:25;;;;;;;5.43;5.03;;;15.50;99.90;;;;;;5040494;28;20223;-53
2023/06/09 02:37:52;;;;;;;6.57;6.00;;;15.50;99.90;;;;;;5047560;28;20230;-53
2023/06/09 02:40:20;;;;;;;5.57;5.13;;;15.40;99.90;;;;;;5059086;28;20661;-53
2023/06/09 02:42:47;;;;;;;6.77;6.27;;;15.30;99.90;;;;;;5050973;28;20330;-54
2023/06/09 02:45:14;;;;;;;6.27;5.77;;;15.30;99.90;;;;;;5049547;28;20283;-53
2023/06/09 02:47:41;;;;;;;6.60;6.20;;;15.30;99.90;;;;;;5047670;28;20276;-53
2023/06/09 02:50:10;;;;;;;6.13;5.73;;;15.40;99.90;;;;;;5059419;28;20284;-53
2023/06/09 02:52:39;;;;;;;5.97;5.57;;;15.30;99.90;;;;;;5058221;28;20205;-53
2023/06/09 02:55:07;;;;;;;7.20;6.60;;;15.30;99.90;;;;;;5057806;28;20217;-53
2023/06/09 02:57:34;;;;;;;8.00;7.30;;;15.20;99.90;;;;;;5057108;28;20217;-53
2023/06/09 03:00:03;;;;;;;6.70;6.07;;;15.10;99.90;;;;;;5050021;28;20205;-53
2023/06/09 03:02:32;;;;;;;7.03;6.40;;;15.00;99.90;;;;;;5049556;28;20202;-53
2023/06/09 03:05:00;;;;;;;5.67;5.37;;;15.00;99.90;;;;;;5045604;28;20293;-53
2023/06/09 03:07:28;;;;;;;6.40;6.07;;;15.00;99.90;;;;;;5055388;28;20277;-53
2023/06/09 03:09:55;;;;;;;6.03;5.70;;;14.90;99.90;;;;;;5038028;28;20207;-53
2023/06/09 03:12:22;;;;;;;7.00;6.50;;;15.00;99.90;;;;;;5040834;28;20259;-53
2023/06/09 03:14:49;;;;;;;7.27;6.50;;;14.90;99.90;;;;;;5039551;28;20217;-53
2023/06/09 03:17:18;;;;;;;6.67;6.27;;;14.80;99.90;;;;;;5049682;28;20711;-53
2023/06/09 03:19:45;;;;;;;7.60;6.90;;;14.80;99.90;;;;;;5049479;28;20244;-53
2023/06/09 03:22:12;;;;;;;7.47;6.87;;;14.80;99.90;;;;;;5041540;28;20498;-53
2023/06/09 03:24:44;;;;;;;7.80;7.30;;;14.90;99.90;;;;;;5045219;28;20221;-53
2023/06/09 03:27:11;;;;;;;7.67;7.10;;;15.00;99.90;;;;;;5047729;28;20225;-53
2023/06/09 03:29:38;;;;;;;8.13;7.53;;;14.90;99.90;;;;;;5050006;28;20618;-53
2023/06/09 03:32:06;;;;;;;9.00;8.20;;;14.90;99.90;;;;;;5039420;28;20672;-53
2023/06/09 03:34:33;;;;;;;7.70;7.20;;;14.80;99.90;;;;;;5046625;28;20665;-53
2023/06/09 03:37:00;;;;;;;8.80;7.90;;;14.80;99.90;;;;;;5058137;28;20198;-53
2023/06/09 03:39:27;;;;;;;8.63;7.93;;;14.80;99.90;;;;;;5048930;28;20272;-54
2023/06/09 03:41:56;;;;;;;7.23;6.73;;;14.70;99.90;;;;;;5059420;28;20224;-54
2023/06/09 03:44:23;;;;;;;7.73;7.17;;;14.80;99.90;;;;;;5046134;28;20197;-53
2023/06/09 03:46:51;;;;;;;8.63;8.03;;;14.80;99.90;;;;;;5105209;22;20225;-55
2023/06/09 03:49:18;;;;;;;7.13;6.50;;;14.70;99.90;;;;;;5051825;28;20249;-54
2023/06/09 03:51:45;;;;;;;10.43;8.47;;;14.70;99.90;;;;;;5049881;28;20268;-54
2023/06/09 03:54:12;;;;;;;8.33;7.63;;;14.80;99.90;;;;;;5051489;28;20201;-55
2023/06/09 03:56:39;;;;;;;7.73;7.13;;;14.80;99.90;;;;;;5037238;28;20229;-54
2023/06/09 03:59:07;;;;;;;8.10;7.40;;;14.80;99.90;;;;;;5044233;28;20222;-54
2023/06/09 04:01:34;;;;;;;7.97;7.33;;;14.70;99.90;;;;;;5029450;28;20206;-55
2023/06/09 04:04:01;;;;;;;7.63;7.03;;;14.80;99.90;;;;;;5025505;28;20256;-54
2023/06/09 04:06:28;;;;;;;7.30;6.60;;;14.80;99.90;;;;;;5029363;28;20226;-55
2023/06/09 04:08:55;;;;;;;7.53;7.00;;;14.80;99.90;;;;;;5041140;28;20309;-55
2023/06/09 04:11:22;;;;;;;7.97;7.27;;;14.90;99.90;;;;;;5031343;28;20256;-54
2023/06/09 04:13:49;;;;;;;7.50;6.90;;;15.00;99.90;;;;;;5034230;28;20606;-54
2023/06/09 04:16:17;;;;;;;7.10;6.50;;;15.00;99.90;;;;;;5046032;28;20275;-54
2023/06/09 04:18:46;;;;;;;6.77;6.27;;;15.00;99.90;;;;;;5024167;28;20280;-55
2023/06/09 04:21:14;;;;;;;7.30;6.67;;;15.10;99.90;;;;;;5037290;28;20193;-54
2023/06/09 04:23:41;;;;;;;7.00;6.60;;;15.10;99.90;;;;;;5030007;28;20691;-54
2023/06/09 04:26:09;;;;;;;7.73;7.07;;;15.20;99.90;;;;;;5031411;28;20225;-54
2023/06/09 04:28:36;;;;;;;6.33;5.93;;;15.30;99.90;;;;;;5029707;28;20636;-55
2023/06/09 04:31:06;;;;;;;7.83;7.33;;;15.40;99.90;;;;;;5039493;28;20726;-55
2023/06/09 04:33:36;;;;;;;9.27;6.40;;;15.40;99.90;;;;;;5023539;28;20199;-55
2023/06/09 04:36:03;;;;;;;6.47;5.87;;;15.50;99.90;;;;;;5027764;28;20774;-54
2023/06/09 04:38:32;;;;;;;6.10;5.57;;;15.60;99.90;;;;;;5028842;28;20269;-55
2023/06/09 04:41:02;;;;;;;7.63;5.77;;;15.60;99.90;;;;;;5029599;28;20226;-55
2023/06/09 04:43:32;;;;;;;6.40;5.90;;;15.60;99.90;;;;;;5017854;28;20274;-55
2023/06/09 04:45:59;;;;;;;6.53;5.93;;;15.70;99.90;;;;;;5029654;28;20787;-54
2023/06/09 04:48:29;;;;;;;6.30;5.80;;;15.70;99.90;;;;;;5027209;28;20197;-54
2023/06/09 04:51:01;;;;;;;6.13;5.63;;;15.80;99.90;;;;;;5037931;28;20198;-55
2023/06/09 04:53:28;;;;;;;5.73;5.30;;;15.90;99.90;;;;;;5041080;28;20203;-54
2023/06/09 04:55:55;;;;;;;6.80;6.40;;;16.00;99.90;;;;;;5031703;28;20292;-55
2023/06/09 04:58:23;;;;;;;5.73;5.40;;;16.20;99.90;;;;;;5028663;28;20652;-55
2023/06/09 05:00:51;;;;;;;6.90;6.37;;;16.30;99.90;;;;;;5033560;28;20281;-55
2023/06/09 05:03:18;;;;;;;6.93;6.50;;;16.40;99.90;;;;;;5038446;28;20198;-55
2023/06/09 05:05:45;;;;;;;6.00;5.40;;;16.60;99.90;;;;;;5040209;28;20223;-54
2023/06/09 05:08:15;;;;;;;7.27;6.77;;;16.60;99.90;;;;;;5028223;28;20195;-56
2023/06/09 05:10:42;;;;;;;6.43;6.13;;;16.70;99.90;;;;;;5028905;28;20202;-55
2023/06/09 05:13:09;;;;;;;7.40;6.33;;;17.00;99.90;;;;;;5032245;28;20213;-53
2023/06/09 05:15:37;;;;;;;6.60;6.20;;;17.50;99.90;;;;;;5028248;28;20280;-55
2023/06/09 05:18:04;;;;;;;6.27;5.73;;;18.20;99.90;;;;;;5044242;28;20381;-54
2023/06/09 05:20:32;;;;;;;6.00;5.50;;;19.00;99.90;;;;;;5033420;28;20206;-54
2023/06/09 05:22:59;;;;;;;7.00;6.50;;;19.80;99.90;;;;;;5033087;28;20723;-54
2023/06/09 05:25:27;;;;;;;6.30;5.87;;;20.50;99.90;;;;;;5041322;28;20251;-54
2023/06/09 05:27:54;;;;;;;6.03;5.40;;;21.10;99.90;;;;;;5038328;28;20289;-54
2023/06/09 05:30:21;;;;;;;6.03;5.53;;;21.90;99.90;;;;;;5038409;28;20210;-54
2023/06/09 05:32:48;;;;;;;5.70;5.30;;;22.10;99.90;;;;;;5033485;28;20687;-54
2023/06/09 05:35:16;;;;;;;5.93;5.60;;;22.80;99.90;;;;;;5033937;28;20281;-54
2023/06/09 05:37:49;;;;;;;5.50;5.03;;;23.40;99.90;;;;;;5031815;28;20198;-54
2023/06/09 05:40:17;;;;;;;5.50;5.00;;;23.60;99.90;;;;;;5038018;28;20198;-54
2023/06/09 05:42:45;;;;;;;8.17;5.03;;;24.30;99.90;;;;;;5050603;28;20197;-54
2023/06/09 05:45:12;;;;;;;6.00;5.40;;;24.80;99.90;;;;;;5039966;28;20226;-54
2023/06/09 05:47:39;;;;;;;5.10;4.90;;;25.30;99.90;;;;;;5032034;28;20751;-54
2023/06/09 05:50:07;;;;;;;5.13;4.93;;;25.10;99.90;;;;;;5032984;28;20202;-54
2023/06/09 05:52:34;;;;;;;5.60;5.10;;;25.50;99.90;;;;;;5045380;28;20614;-54
2023/06/09 05:55:01;;;;;;;7.03;6.20;;;25.50;99.90;;;;;;5053924;28;20264;-55
2023/06/09 05:57:29;;;;;;;5.30;4.90;;;26.00;99.90;;;;;;5039896;28;20560;-55
2023/06/09 05:59:58;;;;;;;6.00;5.60;;;25.80;99.90;;;;;;5041854;28;20214;-54
2023/06/09 06:02:25;;;;;;;6.27;5.77;;;25.80;99.90;;;;;;5033898;28;20301;-53
2023/06/09 06:04:52;;;;;;;5.50;5.10;;;25.50;99.90;;;;;;5033524;28;20210;-54
2023/06/09 06:07:20;;;;;;;4.33;4.13;;;25.70;99.90;;;;;;5030634;28;20207;-54
2023/06/09 06:09:47;;;;;;;4.57;4.37;;;25.80;99.90;;;;;;5035600;28;20198;-54
2023/06/09 06:12:16;;;;;;;5.30;4.90;;;26.40;99.90;;;;;;5042081;28;20608;-54
2023/06/09 06:14:43;;;;;;;4.27;3.97;;;26.80;99.90;;;;;;5049036;28;20233;-54
2023/06/09 06:17:15;;;;;;;5.37;5.00;;;27.10;99.90;;;;;;5033363;28;20203;-54
2023/06/09 06:19:42;;;;;;;4.13;3.93;;;27.10;99.90;;;;;;5032171;28;20269;-55
2023/06/09 06:22:09;;;;;;;4.60;4.30;;;27.20;99.50;;;;;;5041146;28;20260;-54
2023/06/09 06:24:36;;;;;;;5.15;4.65;;;27.50;99.90;;;;;;5028968;28;20214;-55
2023/06/09 06:27:03;;;;;;;4.75;4.55;;;27.70;99.90;;;;;;5033144;28;20314;-55
2023/06/09 06:29:31;;;;;;;5.30;4.72;;;27.30;99.90;;;;;;5035268;28;20198;-55
2023/06/09 06:31:58;;;;;;;4.85;4.45;;;27.40;99.90;;;;;;5041101;28;20198;-55
2023/06/09 06:34:27;;;;;;;5.20;4.85;;;27.70;99.90;;;;;;5031586;28;20253;-55
2023/06/09 06:36:54;;;;;;;4.03;3.92;;;27.80;99.00;;;;;;5040741;28;20636;-56
2023/06/09 06:39:21;;;;;;;3.95;3.85;;;27.90;98.10;;;;;;5035563;28;20303;-57
2023/06/09 06:41:48;;;;;;;4.47;4.18;;;28.50;97.40;;;;;;5032909;28;20210;-58
2023/06/09 06:44:15;;;;;;;4.60;4.28;;;28.70;95.50;;;;;;5052836;28;20202;-57
2023/06/09 06:46:42;;;;;;;4.68;4.45;;;28.90;94.90;;;;;;5052409;28;20283;-57
2023/06/09 06:49:09;;;;;;;5.30;5.00;;;29.30;95.90;;;;;;5049336;28;20206;-57
2023/06/09 06:51:37;;;;;;;4.13;3.88;;;28.60;95.00;;;;;;5038343;28;20206;-57
2023/06/09 06:54:04;;;;;;;4.88;4.38;;;28.80;94.40;;;;;;5040949;28;20827;-57
2023/06/09 06:56:31;;;;;;;4.43;4.10;;;28.50;96.50;;;;;;5032812;28;20595;-57
2023/06/09 06:58:58;;;;;;;3.60;3.40;;;28.90;94.80;;;;;;5032257;28;20222;-57
2023/06/09 07:01:25;;;;;;;4.55;4.15;;;29.00;95.00;;;;;;5034302;28;20696;-57
2023/06/09 07:03:52;;;;;;;4.82;4.63;;;28.90;94.00;;;;;;5026547;28;20608;-57
2023/06/09 07:06:20;;;;;;;3.75;3.42;;;28.80;93.50;;;;;;5027814;28;20227;-58
2023/06/09 07:08:48;;;;;;;3.75;3.53;;;29.30;93.50;;;;;;5032181;28;20285;-57
2023/06/09 07:11:15;;;;;;;4.05;3.75;;;29.30;94.20;;;;;;5030797;28;20198;-58
2023/06/09 07:13:42;;;;;;;4.95;4.75;;;29.80;92.80;;;;;;5035517;28;20225;-57
2023/06/09 07:16:09;;;;;;;4.03;3.83;;;29.20;93.40;;;;;;5032262;28;20276;-58
2023/06/09 07:18:36;;;;;;;3.75;3.47;;;29.20;92.00;;;;;;5032158;28;20302;-58
2023/06/09 07:21:03;;;;;;;4.00;3.55;;;29.10;92.30;;;;;;5026922;28;20198;-58
2023/06/09 07:23:30;;;;;;;3.58;3.47;;;29.50;92.40;;;;;;5035531;28;20202;-58
2023/06/09 07:25:59;;;;;;;3.25;3.15;;;29.90;90.60;;;;;;5042178;28;20273;-58
2023/06/09 07:28:26;;;;;;;3.45;3.35;;;30.00;92.30;;;;;;5049191;28;20297;-58
2023/06/09 07:30:53;;;;;;;4.30;3.95;;;29.30;92.30;;;;;;5034859;28;20206;-58
2023/06/09 07:33:20;;;;;;;4.05;3.83;;;29.80;93.70;;;;;;5051715;28;20233;-57
2023/06/09 07:35:48;;;;;;;4.82;4.63;;;30.40;90.60;;;;;;5051824;28;20607;-57
2023/06/09 07:38:16;;;;;;;5.38;4.60;;;30.60;91.80;;;;;;5052038;28;20346;-57
2023/06/09 07:40:43;;;;;;;5.45;4.90;;;30.80;92.10;;;;;;5041221;28;20225;-57
2023/06/09 07:43:11;;;;;;;4.95;4.57;;;30.60;90.30;;;;;;5043761;28;20229;-57
2023/06/09 07:45:39;;;;;;;4.13;3.92;;;30.20;90.60;;;;;;5051554;28;20229;-58
2023/06/09 07:48:06;;;;;;;5.25;4.95;;;30.50;92.10;;;;;;5051667;28;20205;-58
2023/06/09 07:50:34;;;;;;;5.13;4.63;;;30.60;91.40;;;;;;5031001;28;20206;-58
2023/06/09 07:53:03;;;;;;;3.92;3.72;;;30.80;90.10;;;;;;5039768;28;20233;-58
2023/06/09 07:55:30;;;;;;;4.47;4.35;;;31.00;88.30;;;;;;5031147;28;20222;-58
2023/06/09 07:57:57;;;;;;;4.05;3.80;;;30.70;90.60;;;;;;5037087;28;20217;-58
2023/06/09 08:00:25;;;;;;;4.32;4.03;;;30.60;92.70;;;;;;5037392;28;20272;-58
2023/06/09 08:02:53;;;;;;;4.95;4.55;;;31.20;88.50;;;;;;5030629;28;20275;-57
2023/06/09 08:05:20;;;;;;;3.88;3.78;;;31.60;89.20;;;;;;5039870;28;20244;-57
2023/06/09 08:07:47;;;;;;;4.13;3.90;;;31.30;91.20;;;;;;5031799;28;20209;-57
2023/06/09 08:10:14;;;;;;;4.65;4.43;;;31.30;87.90;;;;;;5030048;28;20549;-58
2023/06/09 08:12:40;;;;;;;4.43;4.32;;;30.90;89.20;;;;;;5037251;28;20203;-57
2023/06/09 08:15:08;;;;;;;5.47;5.00;;;31.00;90.00;;;;;;5030564;28;20292;-58
2023/06/09 08:17:37;;;;;;;4.70;4.30;;;31.10;87.50;;;;;;5031650;28;20206;-58
2023/06/09 08:20:05;;;;;;;4.70;4.50;;;31.60;87.10;;;;;;5033254;28;20226;-58
2023/06/09 08:22:32;;;;;;;5.25;4.80;;;32.00;84.50;;;;;;5035379;28;20257;-58
2023/06/09 08:24:59;;;;;;;5.05;4.20;;;32.00;85.00;;;;;;5042826;28;20201;-57
2023/06/09 08:27:26;;;;;;;4.38;4.18;;;32.10;88.30;;;;;;5049683;28;20263;-57
2023/06/09 08:29:53;;;;;;;5.25;4.90;;;31.70;90.10;;;;;;5055365;28;20220;-58
2023/06/09 08:32:20;;;;;;;4.47;4.28;;;31.80;90.90;;;;;;5045022;28;20284;-57
2023/06/09 08:34:48;;;;;;;5.30;4.93;;;31.40;90.50;;;;;;5043983;28;20206;-57
2023/06/09 08:37:19;;;;;;;4.93;4.65;;;31.70;88.60;;;;;;5055344;28;20236;-57
2023/06/09 08:39:47;;;;;;;3.65;3.55;;;31.90;88.90;;;;;;5055209;28;20214;-57
2023/06/09 08:42:22;;;;;;;4.45;4.05;;;32.40;86.30;;;;;;5054914;28;20197;-59
2023/06/09 08:44:56;;;;;;;4.53;4.22;;;32.90;83.60;;;;;;5055136;28;20308;-57
2023/06/09 08:47:25;;;;;;;4.78;4.57;;;33.00;78.80;;;;;;5036158;28;20198;-58
2023/06/09 08:49:57;;;;;;;5.05;4.78;;;32.80;83.60;;;;;;5044261;28;20840;-56
2023/06/09 08:52:24;;;;;;;5.18;4.90;;;32.10;90.90;;;;;;5054567;28;20617;-57
2023/06/09 08:54:52;;;;;;;4.95;4.65;;;32.00;90.10;;;;;;5054792;28;20206;-57
2023/06/09 08:57:20;;;;;;;5.75;5.20;;;32.40;90.60;;;;;;5046742;28;20194;-58
2023/06/09 08:59:48;;;;;;;6.22;5.93;;;32.70;90.10;;;;;;5046448;28;20257;-57
2023/06/09 09:02:19;;;;;;;6.53;6.13;;;31.80;91.40;;;;;;5054548;28;20676;-57
2023/06/09 09:04:49;;;;;;;5.93;5.53;;;31.60;92.70;;;;;;5054625;28;20741;-57
2023/06/09 09:07:19;;;;;;;5.38;4.88;;;31.60;91.70;;;;;;5054974;28;20202;-58
2023/06/09 09:09:46;;;;;;;6.15;5.70;;;31.70;91.20;;;;;;5054879;28;20194;-57
2023/06/09 09:12:14;;;;;;;5.82;5.53;;;31.40;91.20;;;;;;5026547;28;20230;-58
2023/06/09 09:14:43;;;;;;;5.57;5.18;;;31.40;92.20;;;;;;5030698;28;20630;-58
2023/06/09 09:17:11;;;;;;;5.25;4.85;;;31.60;90.10;;;;;;5026567;28;20199;-57
2023/06/09 09:19:42;;;;;;;4.32;4.22;;;31.20;90.00;;;;;;5033029;28;20226;-57
2023/06/09 09:22:10;;;;;;;4.43;4.32;;;31.10;89.50;;;;;;5034236;28;20198;-58
2023/06/09 09:24:41;;;;;;;5.20;4.70;;;31.60;88.30;;;;;;5034460;28;20264;-57
2023/06/09 09:27:17;;;;;;;4.90;4.60;;;31.70;91.70;;;;;;5030863;28;20230;-58
2023/06/09 09:29:45;;;;;;;5.82;5.53;;;31.20;90.60;;;;;;5042431;28;20193;-58
2023/06/09 09:32:12;;;;;;;4.97;4.78;;;32.00;88.30;;;;;;5033207;28;20206;-58
2023/06/09 09:34:41;;;;;;;5.95;4.72;;;31.70;91.10;;;;;;5034222;28;20750;-58
2023/06/09 09:37:11;;;;;;;5.85;5.38;;;31.90;90.50;;;;;;5034124;28;20571;-58
2023/06/09 09:39:51;;;;;;;4.85;4.55;;;31.80;90.30;;;;;;5034197;28;20245;-57
2023/06/09 09:42:18;;;;;;;5.40;5.20;;;30.30;91.20;;;;;;5028286;28;20258;-57
2023/06/09 09:44:47;;;;;;;5.55;5.35;;;30.80;93.30;;;;;;5030676;28;20285;-57
2023/06/09 09:47:17;;;;;;;5.22;5.03;;;30.60;91.80;;;;;;5128659;22;20231;-54
2023/06/09 09:49:51;;;;;;;5.47;5.10;;;30.70;91.70;;;;;;5112913;28;20273;-54
2023/06/09 09:52:25;;;;;;;4.80;4.60;;;30.80;92.70;;;;;;5112556;28;20199;-55
2023/06/09 09:54:54;;;;;;;5.22;5.03;;;31.10;90.50;;;;;;5112982;28;20283;-55
2023/06/09 09:57:22;;;;;;;6.57;6.18;;;31.40;92.50;;;;;;5129271;27;20219;-55
2023/06/09 09:59:51;;;;;;;6.35;5.85;;;31.60;92.00;;;;;;5125972;27;20316;-55
2023/06/09 10:02:23;;;;;;;6.10;5.70;;;31.50;91.40;;;;;;5132523;27;20195;-55
2023/06/09 10:04:50;;;;;;;5.63;5.10;;;31.80;90.30;;;;;;5133319;27;20205;-54
2023/06/09 10:07:22;;;;;;;5.43;5.22;;;32.00;92.50;;;;;;5133064;27;20664;-55
2023/06/09 10:09:51;;;;;;;5.82;5.63;;;32.10;90.30;;;;;;5132345;27;20279;-55
2023/06/09 10:12:21;;;;;;;5.13;4.88;;;32.20;91.50;;;;;;5132687;27;20195;-55
2023/06/09 10:14:49;;;;;;;4.97;4.70;;;32.60;90.50;;;;;;5132294;27;20530;-55
2023/06/09 10:17:20;;;;;;;5.95;5.65;;;32.90;91.30;;;;;;5119356;27;20322;-55
2023/06/09 10:19:48;;;;;;;5.55;5.35;;;33.00;90.50;;;;;;5112202;28;20688;-55
2023/06/09 10:22:18;;;;;;;5.38;5.07;;;32.40;88.20;;;;;;5118891;27;20206;-55
2023/06/09 10:24:47;;;;;;;5.45;5.25;;;32.30;91.80;;;;;;5118275;27;20256;-55
2023/06/09 10:27:14;;;;;;;4.93;4.82;;;32.30;90.60;;;;;;5112002;28;20215;-56
2023/06/09 10:29:43;;;;;;;5.10;4.90;;;32.50;90.50;;;;;;5115053;27;21745;-55
2023/06/09 10:32:12;;;;;;;5.82;5.63;;;32.90;91.30;;;;;;5121252;27;20260;-55
2023/06/09 10:34:41;;;;;;;5.75;5.50;;;33.10;90.80;;;;;;5130535;27;20240;-56
2023/06/09 10:37:08;;;;;;;5.13;4.82;;;32.90;92.40;;;;;;5123723;27;20290;-55
2023/06/09 10:39:50;;;;;;;5.32;5.22;;;33.20;90.80;;;;;;5132277;27;20196;-55
2023/06/09 10:42:26;;;;;;;5.25;5.05;;;32.90;90.50;;;;;;5130262;27;20203;-55
2023/06/09 10:45:03;;;;;;;5.53;5.13;;;33.20;90.90;;;;;;5127046;27;20640;-55
2023/06/09 10:47:44;;;;;;;4.82;4.63;;;32.80;90.50;;;;;;5125312;27;20226;-55
2023/06/09 10:50:26;;;;;;;5.78;5.50;;;32.60;89.80;;;;;;5119312;27;20717;-55
2023/06/09 10:52:55;;;;;;;5.47;5.20;;;32.60;90.50;;;;;;5130419;27;20236;-55
2023/06/09 10:55:23;;;;;;;5.50;5.20;;;31.70;91.60;;;;;;5124741;27;20191;-54
2023/06/09 10:57:51;;;;;;;6.05;5.55;;;31.40;92.90;;;;;;5130162;27;20195;-54
2023/06/09 11:00:20;;;;;;;6.43;6.13;;;31.20;91.40;;;;;;5132033;27;20223;-55
2023/06/09 11:02:51;;;;;;;5.78;5.47;;;30.80;93.70;;;;;;5130234;27;20624;-54
2023/06/09 11:05:20;;;;;;;5.85;5.57;;;29.70;93.50;;;;;;5129420;27;20199;-54
2023/06/09 11:07:52;;;;;;;4.97;4.78;;;28.90;94.20;;;;;;5129865;27;20199;-54
2023/06/09 11:10:28;;;;;;;5.22;5.03;;;29.00;93.60;;;;;;5127366;27;20187;-54
2023/06/09 11:12:56;;;;;;;5.82;5.53;;;29.30;93.00;;;;;;5130739;27;20585;-54
2023/06/09 11:16:01;;;;;;;5.20;5.07;;;29.30;94.90;;;;;;5128284;27;20256;-54
2023/06/09 11:18:29;;;;;;;4.68;4.55;;;29.40;94.50;;;;;;5124564;27;20206;-54
2023/06/09 11:21:20;;;;;;;4.72;4.55;;;29.30;92.50;;;;;;5126768;27;20226;-54
2023/06/09 11:24:01;;;;;;;5.10;4.88;;;29.20;93.10;;;;;;5128842;27;20207;-54
2023/06/09 11:26:30;;;;;;;5.63;5.25;;;29.10;94.20;;;;;;5112983;27;20977;-54
2023/06/09 11:28:57;;;;;;;5.57;5.35;;;28.70;95.60;;;;;;5126883;27;20758;-54
2023/06/09 11:31:26;;;;;;;5.30;4.90;;;28.50;94.80;;;;;;5121355;27;20201;-54
2023/06/09 11:33:55;;;;;;;5.50;5.00;;;28.80;93.70;;;;;;5124496;27;20256;-54
2023/06/09 11:36:30;;;;;;;4.68;4.47;;;29.00;93.60;;;;;;5128859;27;20295;-54
2023/06/09 11:39:07;;;;;;;4.90;4.70;;;29.00;92.10;;;;;;5129415;27;20191;-55
2023/06/09 11:41:34;;;;;;;5.47;5.10;;;28.70;93.40;;;;;;5125875;27;20238;-54
2023/06/09 11:44:01;;;;;;;5.07;4.88;;;28.60;94.50;;;;;;5128103;27;20210;-54
2023/06/09 11:46:34;;;;;;;4.60;4.40;;;28.50;94.40;;;;;;5131368;27;20631;-54
2023/06/09 11:49:07;;;;;;;5.28;4.93;;;28.60;91.30;;;;;;5131439;27;20631;-54
2023/06/09 11:51:53;;;;;;;4.60;4.50;;;28.70;94.40;;;;;;5131528;27;20274;-57
2023/06/09 11:54:21;;;;;;;5.07;4.80;;;28.30;92.70;;;;;;5131264;27;20199;-53
2023/06/09 11:56:48;;;;;;;5.18;4.97;;;28.60;95.40;;;;;;5130697;27;20231;-55
2023/06/09 11:59:18;;;;;;;5.90;5.60;;;28.70;95.10;;;;;;5130486;27;20544;-54
2023/06/09 12:01:47;;;;;;;6.18;5.78;;;28.60;93.30;;;;;;5130178;27;20584;-54
2023/06/09 12:04:14;;;;;;;5.03;4.82;;;28.50;94.60;;;;;;5119185;27;20778;-54
2023/06/09 12:06:46;;;;;;;5.70;5.40;;;28.30;92.60;;;;;;5125595;27;20280;-54
2023/06/09 12:09:24;;;;;;;4.68;4.47;;;28.20;94.10;;;;;;5130463;27;20605;-54
2023/06/09 12:11:52;;;;;;;4.93;4.63;;;28.30;90.50;;;;;;5130213;27;20281;-54
2023/06/09 12:14:19;;;;;;;5.32;5.13;;;28.50;92.30;;;;;;5127097;27;20840;-54
2023/06/09 12:16:48;;;;;;;5.97;5.68;;;28.60;93.30;;;;;;5129150;27;20222;-54
2023/06/09 12:19:15;;;;;;;5.07;4.88;;;28.30;93.40;;;;;;5129221;27;20195;-54
2023/06/09 12:21:42;;;;;;;5.25;4.90;;;28.30;93.90;;;;;;5126736;27;20223;-54
2023/06/09 12:24:12;;;;;;;5.03;4.72;;;28.30;92.70;;;;;;5128648;27;20610;-54
2023/06/09 12:26:40;;;;;;;5.53;5.13;;;28.40;91.60;;;;;;5124811;27;20310;-54
2023/06/09 12:29:07;;;;;;;4.85;4.60;;;28.10;91.40;;;;;;5122857;28;20276;-54
2023/06/09 12:31:34;;;;;;;4.07;3.97;;;28.10;91.40;;;;;;5121054;28;20277;-54
2023/06/09 12:34:02;;;;;;;4.65;4.50;;;28.20;90.70;;;;;;5110083;28;20199;-54
2023/06/09 12:36:39;;;;;;;4.53;4.43;;;28.40;91.10;;;;;;5110686;27;20443;-54
2023/06/09 12:39:17;;;;;;;4.82;4.43;;;28.30;90.70;;;;;;5110474;28;20203;-54
2023/06/09 12:41:44;;;;;;;4.68;4.38;;;28.40;91.10;;;;;;5127202;28;20219;-54
2023/06/09 12:44:20;;;;;;;4.55;4.25;;;28.60;91.40;;;;;;5123593;28;20202;-54
2023/06/09 12:46:47;;;;;;;4.97;4.65;;;28.60;91.20;;;;;;5130483;28;20294;-54
2023/06/09 12:49:16;;;;;;;4.97;4.68;;;28.70;92.30;;;;;;5130253;28;20322;-54
2023/06/09 12:51:43;;;;;;;4.93;4.47;;;28.70;90.20;;;;;;5130656;28;20691;-54
2023/06/09 12:54:12;;;;;;;5.15;4.88;;;28.60;89.80;;;;;;5131257;27;20203;-54
2023/06/09 12:56:39;;;;;;;5.00;4.72;;;28.60;91.50;;;;;;5132005;27;20276;-54